createdAt,value
2022-09-11T00:01:07.512Z,14.83
2022-09-11T00:03:34.929Z,14.77
2022-09-11T00:06:03.791Z,14.27
2022-09-11T00:08:32.074Z,14.57
2022-09-11T00:11:08.469Z,13.90
2022-09-11T00:13:37.025Z,14.27
2022-09-11T00:16:07.350Z,14.77
2022-09-11T00:18:38.276Z,14.57
2022-09-11T00:21:08.029Z,15.23
2022-09-11T00:23:34.504Z,15.13
2022-09-11T00:26:03.365Z,15.33
2022-09-11T00:28:29.918Z,16.00
2022-09-11T00:31:02.282Z,15.27
2022-09-11T00:33:29.871Z,15.83
2022-09-11T00:35:59.041Z,15.50
2022-09-11T00:38:28.231Z,16.70
2022-09-11T00:40:58.375Z,16.20
2022-09-11T00:43:26.382Z,16.30
2022-09-11T00:46:00.185Z,16.10
2022-09-11T00:48:30.806Z,17.27
2022-09-11T00:51:00.613Z,18.07
2022-09-11T00:53:30.874Z,17.47
2022-09-11T00:56:02.247Z,17.77
2022-09-11T00:58:33.888Z,17.57
2022-09-11T01:01:02.374Z,17.87
2022-09-11T01:03:32.184Z,17.50
2022-09-11T01:05:59.633Z,16.07
2022-09-11T01:08:27.717Z,17.27
2022-09-11T01:11:20.759Z,18.30
2022-09-11T01:14:02.662Z,17.37
2022-09-11T01:16:45.680Z,20.07
2022-09-11T01:19:41.483Z,18.13
2022-09-11T01:22:27.338Z,19.47
2022-09-11T01:25:09.844Z,19.17
2022-09-11T01:27:43.911Z,17.60
2022-09-11T01:30:12.924Z,18.27
2022-09-11T01:33:06.580Z,19.17
2022-09-11T01:35:59.628Z,18.97
2022-09-11T01:38:32.508Z,20.97
2022-09-11T01:41:15.438Z,19.47
2022-09-11T01:43:51.935Z,21.67
2022-09-11T01:46:23.103Z,19.63
2022-09-11T01:48:58.717Z,21.33
2022-09-11T01:51:30.992Z,18.93
2022-09-11T01:54:02.444Z,19.80
2022-09-11T01:56:41.593Z,19.73
2022-09-11T01:59:14.276Z,19.97
2022-09-11T02:01:45.122Z,19.87
2022-09-11T02:04:18.067Z,20.27
2022-09-11T02:06:56.189Z,19.73
2022-09-11T02:09:26.358Z,19.60
2022-09-11T02:11:54.971Z,19.10
2022-09-11T02:14:36.873Z,21.87
2022-09-11T02:17:09.763Z,20.40
2022-09-11T02:19:36.579Z,20.13
2022-09-11T02:22:03.182Z,20.93
2022-09-11T02:24:29.743Z,20.33
2022-09-11T02:27:04.050Z,20.10
2022-09-11T02:29:30.755Z,22.17
2022-09-11T02:31:57.921Z,20.33
2022-09-11T02:34:28.733Z,23.77
2022-09-11T02:37:15.781Z,24.03
2022-09-11T02:39:55.938Z,21.83
2022-09-11T02:42:38.954Z,23.30
2022-09-11T02:45:17.871Z,24.50
2022-09-11T02:48:21.926Z,24.30
2022-09-11T02:50:54.687Z,22.67
2022-09-11T02:53:39.474Z,25.63
2022-09-11T02:56:13.250Z,24.63
2022-09-11T02:58:55.782Z,24.47
2022-09-11T03:01:23.518Z,23.63
2022-09-11T03:03:50.343Z,23.60
2022-09-11T03:06:23.985Z,24.17
2022-09-11T03:08:51.300Z,24.17
2022-09-11T03:11:17.936Z,23.97
2022-09-11T03:13:45.526Z,26.70
2022-09-11T03:16:12.735Z,25.57
2022-09-11T03:18:39.822Z,27.40
2022-09-11T03:21:06.391Z,26.93
2022-09-11T03:23:33.032Z,24.63
2022-09-11T03:25:59.610Z,24.37
2022-09-11T03:28:26.218Z,26.00
2022-09-11T03:30:53.123Z,26.30
2022-09-11T03:33:19.658Z,28.00
2022-09-11T03:35:47.585Z,29.23
2022-09-11T03:38:14.205Z,28.57
2022-09-11T03:40:43.935Z,28.23
2022-09-11T03:43:12.355Z,29.03
2022-09-11T03:45:39.495Z,30.33
2022-09-11T03:48:06.606Z,30.50
2022-09-11T03:50:33.617Z,32.83
2022-09-11T03:53:00.145Z,32.03
2022-09-11T03:55:26.672Z,34.53
2022-09-11T03:57:53.228Z,30.70
2022-09-11T04:00:19.806Z,34.60
2022-09-11T04:02:46.323Z,31.67
2022-09-11T04:05:13.708Z,34.77
2022-09-11T04:07:40.241Z,35.43
2022-09-11T04:10:06.934Z,35.67
2022-09-11T04:12:34.079Z,37.83
2022-09-11T04:15:02.202Z,37.93
2022-09-11T04:17:31.739Z,36.30
2022-09-11T04:19:59.065Z,35.90
2022-09-11T04:22:26.478Z,36.00
2022-09-11T04:24:53.053Z,37.80
2022-09-11T04:27:19.765Z,38.27
2022-09-11T04:29:46.755Z,40.30
2022-09-11T04:32:13.538Z,37.80
2022-09-11T04:34:40.639Z,37.20
2022-09-11T04:37:07.852Z,36.67
2022-09-11T04:39:36.151Z,34.30
2022-09-11T04:42:04.252Z,39.07
2022-09-11T04:44:32.688Z,39.80
2022-09-11T04:46:59.974Z,41.27
2022-09-11T04:49:26.669Z,41.87
2022-09-11T04:51:53.299Z,45.33
2022-09-11T05:12:07.198Z,56.90
2022-09-11T05:14:34.744Z,55.63
2022-09-11T05:19:33.569Z,51.80
2022-09-11T05:22:02.313Z,54.83
2022-09-11T05:24:29.679Z,49.57
2022-09-11T05:26:58.931Z,48.67
2022-09-11T05:29:32.193Z,49.57
2022-09-11T05:31:59.280Z,51.33
2022-09-11T05:34:28.810Z,47.80
2022-09-11T05:36:57.501Z,50.47
2022-09-11T05:39:24.552Z,46.80
2022-09-11T05:41:52.490Z,46.57
2022-09-11T05:44:19.717Z,43.87
2022-09-11T05:46:46.308Z,47.80
2022-09-11T05:49:13.051Z,48.77
2022-09-11T05:51:41.673Z,47.97
2022-09-11T05:54:08.541Z,47.00
2022-09-11T05:56:35.109Z,49.57
2022-09-11T05:59:02.633Z,51.03
2022-09-11T06:01:29.472Z,48.93
2022-09-11T06:03:56.859Z,45.80
2022-09-11T06:06:24.478Z,47.37
2022-09-11T06:08:53.004Z,48.90
2022-09-11T06:11:21.407Z,46.50
2022-09-11T06:13:49.320Z,47.83
2022-09-11T06:16:18.892Z,44.67
2022-09-11T06:18:49.283Z,45.13
2022-09-11T06:21:20.738Z,47.37
2022-09-11T06:23:49.284Z,46.97
2022-09-11T06:26:18.634Z,48.57
2022-09-11T06:28:47.465Z,51.60
2022-09-11T06:31:16.948Z,50.27
2022-09-11T06:33:44.393Z,55.23
2022-09-11T06:36:14.210Z,55.67
2022-09-11T06:38:40.812Z,52.80
2022-09-11T06:41:12.470Z,49.73
2022-09-11T06:43:39.002Z,51.77
2022-09-11T06:46:25.349Z,57.83
2022-09-11T06:48:52.960Z,54.73
2022-09-11T06:51:21.708Z,56.63
2022-09-11T06:53:48.903Z,54.93
2022-09-11T06:56:17.927Z,54.77
2022-09-11T06:58:45.996Z,54.53
2022-09-11T07:01:15.152Z,56.30
2022-09-11T07:03:45.235Z,56.13
2022-09-11T07:06:17.700Z,56.73
2022-09-11T07:08:44.937Z,55.60
2022-09-11T07:11:12.857Z,55.50
2022-09-11T07:13:39.919Z,54.50
2022-09-11T07:16:09.369Z,54.83
2022-09-11T07:18:38.028Z,59.40
2022-09-11T07:21:09.765Z,58.70
2022-09-11T07:23:36.324Z,59.43
2022-09-11T07:26:07.485Z,58.50
2022-09-11T07:28:34.628Z,59.73
2022-09-11T07:31:11.367Z,58.27
2022-09-11T07:33:46.059Z,58.83
2022-09-11T07:36:14.454Z,54.87
2022-09-11T07:38:42.263Z,54.07
2022-09-11T07:41:09.530Z,49.37
2022-09-11T07:43:41.682Z,45.17
2022-09-11T07:46:10.093Z,46.17
2022-09-11T07:48:36.707Z,50.77
2022-09-11T07:51:05.876Z,50.27
2022-09-11T07:53:40.393Z,53.33
2022-09-11T07:56:12.108Z,54.23
2022-09-11T07:58:40.244Z,53.73
2022-09-11T08:01:18.399Z,53.87
2022-09-11T08:03:45.590Z,55.77
2022-09-11T08:06:22.576Z,62.28
2022-09-11T08:08:56.582Z,56.23
2022-09-11T08:11:23.762Z,55.90
2022-09-11T08:13:53.974Z,54.70
2022-09-11T08:16:22.570Z,57.33
2022-09-11T08:18:49.213Z,56.23
2022-09-11T08:21:16.289Z,55.67
2022-09-11T08:23:44.266Z,54.63
2022-09-11T08:26:21.970Z,54.47
2022-09-11T08:28:50.714Z,48.10
2022-09-11T08:31:18.828Z,48.50
2022-09-11T08:33:45.915Z,50.77
2022-09-11T08:36:16.343Z,46.43
2022-09-11T08:38:44.415Z,40.47
2022-09-11T08:41:36.662Z,36.90
2022-09-11T08:44:10.080Z,35.00
2022-09-11T08:46:42.995Z,31.83
2022-09-11T08:49:24.677Z,34.60
2022-09-11T08:51:54.420Z,30.93
2022-09-11T08:54:29.160Z,33.10
2022-09-11T08:57:19.493Z,31.47
2022-09-11T09:00:12.190Z,34.30
2022-09-11T09:03:09.871Z,34.47
2022-09-11T09:05:57.300Z,33.73
2022-09-11T09:08:37.400Z,34.13
2022-09-11T09:11:03.864Z,35.93
2022-09-11T09:13:39.512Z,35.70
2022-09-11T09:16:40.312Z,38.90
2022-09-11T09:19:20.380Z,37.00
2022-09-11T09:22:01.332Z,41.23
2022-09-11T09:24:32.031Z,49.50
2022-09-11T09:26:59.676Z,51.03
2022-09-11T09:29:31.427Z,46.07
2022-09-11T09:32:02.092Z,48.67
2022-09-11T09:34:35.474Z,50.30
2022-09-11T09:37:23.490Z,49.50
2022-09-11T09:39:51.475Z,46.80
2022-09-11T09:42:21.105Z,48.73
2022-09-11T09:44:50.581Z,49.10
2022-09-11T09:47:17.752Z,53.80
2022-09-11T09:49:45.453Z,52.10
2022-09-11T09:52:24.553Z,48.90
2022-09-11T09:55:00.565Z,41.37
2022-09-11T09:57:36.766Z,39.77
2022-09-11T10:00:15.667Z,40.53
2022-09-11T10:02:45.555Z,37.80
2022-09-11T10:05:20.161Z,37.37
2022-09-11T10:07:52.634Z,35.70
2022-09-11T10:10:31.788Z,36.80
2022-09-11T10:13:18.465Z,36.23
2022-09-11T10:15:49.235Z,34.00
2022-09-11T10:18:37.962Z,35.07
2022-09-11T10:21:13.858Z,33.23
2022-09-11T10:23:50.766Z,38.47
2022-09-11T10:26:25.927Z,36.57
2022-09-11T10:28:55.977Z,37.07
2022-09-11T10:31:22.931Z,38.33
2022-09-11T10:34:00.428Z,41.17
2022-09-11T10:36:29.256Z,39.70
2022-09-11T10:38:58.818Z,39.57
2022-09-11T10:41:28.215Z,39.60
2022-09-11T10:44:01.781Z,40.30
2022-09-11T10:46:39.509Z,39.93
2022-09-11T10:49:06.047Z,38.10
2022-09-11T10:51:38.550Z,37.40
2022-09-11T10:54:14.534Z,34.23
2022-09-11T10:56:46.485Z,39.60
2022-09-11T10:59:23.529Z,36.20
2022-09-11T11:01:51.359Z,34.90
2022-09-11T11:04:18.028Z,29.13
2022-09-11T11:06:59.555Z,29.80
2022-09-11T11:09:35.124Z,29.77
2022-09-11T11:12:14.555Z,30.83
2022-09-11T11:14:49.944Z,30.33
2022-09-11T11:17:28.877Z,30.20
2022-09-11T11:20:20.290Z,31.73
2022-09-11T11:23:02.966Z,29.30
2022-09-11T11:25:54.567Z,28.20
2022-09-11T11:28:26.150Z,28.50
2022-09-11T11:31:01.432Z,29.47
2022-09-11T11:33:54.218Z,29.77
2022-09-11T11:36:40.615Z,28.50
2022-09-11T11:39:39.542Z,22.37
2022-09-11T11:42:17.843Z,19.00
2022-09-11T11:44:56.458Z,16.67
2022-09-11T11:47:30.220Z,16.30
2022-09-11T11:50:40.442Z,13.50
2022-09-11T11:53:12.640Z,17.73
2022-09-11T11:55:51.498Z,18.10
2022-09-11T11:58:36.670Z,17.77
2022-09-11T12:01:09.427Z,17.80
2022-09-11T12:03:44.582Z,16.70
2022-09-11T12:06:11.737Z,16.13
2022-09-11T12:08:48.341Z,16.47
2022-09-11T12:11:19.020Z,15.73
2022-09-11T12:13:48.141Z,15.17
2022-09-11T12:16:31.759Z,15.47
2022-09-11T12:19:19.923Z,16.37
2022-09-11T12:21:52.489Z,14.80
2022-09-11T12:24:24.637Z,14.73
2022-09-11T12:27:28.805Z,12.57
2022-09-11T12:29:57.846Z,13.53
2022-09-11T12:32:29.139Z,12.57
2022-09-11T12:35:01.574Z,11.83
2022-09-11T12:37:35.627Z,13.17
2022-09-11T12:40:23.060Z,12.53
2022-09-11T12:42:58.571Z,12.47
2022-09-11T12:45:35.994Z,13.00
2022-09-11T12:48:15.139Z,13.87
2022-09-11T12:50:50.056Z,14.67
2022-09-11T12:53:23.726Z,12.73
2022-09-11T12:55:53.159Z,13.40
2022-09-11T12:58:19.634Z,15.03
2022-09-11T13:00:49.728Z,13.53
2022-09-11T13:03:20.141Z,15.53
2022-09-11T13:05:55.601Z,16.90
2022-09-11T13:08:26.660Z,16.10
2022-09-11T13:10:53.758Z,15.40
2022-09-11T13:13:35.269Z,16.47
2022-09-11T13:16:24.181Z,17.17
2022-09-11T13:18:50.765Z,15.70
2022-09-11T13:21:22.031Z,16.07
2022-09-11T13:23:51.412Z,17.20
2022-09-11T13:26:26.089Z,14.97
2022-09-11T13:28:56.268Z,15.27
2022-09-11T13:31:34.291Z,15.67
2022-09-11T13:34:04.138Z,16.40
2022-09-11T13:36:33.466Z,16.03
2022-09-11T13:39:02.868Z,15.90
2022-09-11T13:41:33.751Z,14.90
2022-09-11T13:44:01.738Z,13.80
2022-09-11T13:46:32.701Z,13.17
2022-09-11T13:49:28.748Z,14.43
2022-09-11T13:51:56.244Z,13.80
2022-09-11T13:54:32.940Z,12.70
2022-09-11T13:57:03.119Z,12.63
2022-09-11T13:59:49.442Z,13.60
2022-09-11T14:02:46.625Z,14.77
2022-09-11T14:05:31.495Z,11.17
2022-09-11T14:07:59.891Z,12.57
2022-09-11T14:10:31.224Z,11.97
2022-09-11T14:13:14.260Z,12.43
2022-09-11T14:15:59.638Z,12.63
2022-09-11T14:18:49.416Z,11.00
2022-09-11T14:21:19.640Z,10.53
2022-09-11T14:23:50.829Z,10.40
2022-09-11T14:26:33.843Z,10.87
2022-09-11T14:29:03.758Z,12.27
2022-09-11T14:31:41.809Z,12.00
2022-09-11T14:34:19.817Z,12.33
2022-09-11T14:36:59.313Z,13.80
2022-09-11T14:39:28.911Z,13.10
2022-09-11T14:41:56.233Z,11.73
2022-09-11T14:44:24.172Z,12.33
2022-09-11T14:46:50.702Z,15.60
2022-09-11T14:49:17.208Z,15.27
2022-09-11T14:51:44.498Z,14.43
2022-09-11T14:54:15.822Z,15.40
2022-09-11T14:56:42.844Z,14.53
2022-09-11T14:59:09.346Z,13.93
2022-09-11T15:01:36.638Z,13.77
2022-09-11T15:04:03.574Z,13.87
2022-09-11T15:06:31.208Z,13.90
2022-09-11T15:08:58.483Z,14.13
2022-09-11T15:11:26.351Z,14.27
2022-09-11T15:14:14.367Z,14.23
2022-09-11T15:16:39.781Z,13.70
2022-09-11T15:19:06.264Z,13.53
2022-09-11T15:21:37.316Z,12.70
2022-09-11T15:24:05.810Z,12.53
2022-09-11T15:26:34.217Z,13.13
2022-09-11T15:29:00.896Z,11.67
2022-09-11T15:31:30.640Z,10.43
2022-09-11T15:33:57.545Z,11.57
2022-09-11T15:36:25.036Z,11.87
2022-09-11T15:38:55.049Z,12.00
2022-09-11T15:41:22.877Z,11.47
2022-09-11T15:43:50.738Z,12.17
2022-09-11T15:46:22.683Z,10.03
2022-09-11T15:48:50.245Z,12.53
2022-09-11T15:51:21.767Z,11.73
2022-09-11T15:53:48.501Z,11.57
2022-09-11T15:56:23.861Z,10.43
2022-09-11T15:58:52.889Z,10.43
2022-09-11T16:01:27.718Z,9.17
2022-09-11T16:03:57.154Z,10.70
2022-09-11T16:06:26.130Z,11.90
2022-09-11T16:08:56.340Z,10.67
2022-09-11T16:11:24.873Z,10.60
2022-09-11T16:13:53.421Z,11.00
2022-09-11T16:16:20.661Z,11.97
2022-09-11T16:18:47.509Z,10.93
2022-09-11T16:21:15.466Z,17.57
2022-09-11T16:23:42.134Z,11.90
2022-09-11T16:26:11.871Z,11.27
2022-09-11T16:28:39.951Z,10.63
2022-09-11T16:31:07.689Z,11.00
2022-09-11T16:33:38.934Z,10.13
2022-09-11T16:36:08.354Z,11.20
2022-09-11T16:38:37.636Z,10.33
2022-09-11T16:41:12.497Z,10.80
2022-09-11T16:43:41.427Z,10.70
2022-09-11T16:46:08.965Z,9.30
2022-09-11T16:48:38.897Z,9.37
2022-09-11T16:51:06.420Z,9.20
2022-09-11T16:53:35.287Z,10.27
2022-09-11T16:56:14.701Z,9.23
2022-09-11T16:58:42.221Z,9.63
2022-09-11T17:01:17.412Z,9.97
2022-09-11T17:03:45.840Z,9.20
2022-09-11T17:06:14.886Z,9.70
2022-09-11T17:08:43.417Z,9.20
2022-09-11T17:11:13.836Z,9.70
2022-09-11T17:13:41.629Z,9.20
2022-09-11T17:16:16.201Z,8.50
2022-09-11T17:18:56.404Z,8.40
2022-09-11T17:21:25.161Z,7.93
2022-09-11T17:23:53.889Z,8.13
2022-09-11T17:26:21.708Z,8.53
2022-09-11T17:28:50.424Z,8.50
2022-09-11T17:31:19.433Z,8.10
2022-09-11T17:33:46.806Z,7.90
2022-09-11T17:36:17.248Z,7.90
2022-09-11T17:38:45.577Z,7.97
2022-09-11T17:41:12.807Z,7.57
2022-09-11T17:43:40.588Z,7.77
2022-09-11T17:46:16.065Z,7.30
2022-09-11T17:48:43.819Z,7.70
2022-09-11T17:51:13.941Z,8.00
2022-09-11T17:53:42.873Z,7.43
2022-09-11T17:56:14.379Z,8.10
2022-09-11T17:58:42.673Z,8.50
2022-09-11T18:01:12.556Z,8.83
2022-09-11T18:03:41.451Z,9.00
2022-09-11T18:06:32.679Z,7.93
2022-09-11T18:09:01.869Z,8.50
2022-09-11T18:11:30.977Z,8.50
2022-09-11T18:14:00.201Z,8.50
2022-09-11T18:16:26.916Z,8.00
2022-09-11T18:18:54.379Z,8.27
2022-09-11T18:21:21.355Z,8.37
2022-09-11T18:23:49.656Z,10.87
2022-09-11T18:26:25.958Z,9.13
2022-09-11T18:29:00.996Z,9.40
2022-09-11T18:31:30.238Z,10.43
2022-09-11T18:34:00.055Z,9.27
2022-09-11T18:36:29.120Z,9.50
2022-09-11T18:38:57.775Z,10.23
2022-09-11T18:41:24.741Z,9.70
2022-09-11T18:43:54.979Z,9.30
2022-09-11T18:46:22.351Z,9.33
2022-09-11T18:48:50.357Z,10.70
2022-09-11T18:51:19.818Z,9.47
2022-09-11T18:53:53.532Z,10.83
2022-09-11T18:56:22.376Z,10.07
2022-09-11T18:58:50.614Z,9.73
2022-09-11T19:01:20.251Z,9.87
2022-09-11T19:03:47.196Z,10.70
2022-09-11T19:06:16.228Z,10.20
2022-09-11T19:08:44.854Z,10.40
2022-09-11T19:11:18.120Z,10.67
2022-09-11T19:13:45.962Z,14.70
2022-09-11T19:16:13.117Z,14.40
2022-09-11T19:18:39.691Z,20.27
2022-09-11T19:21:11.106Z,22.63
2022-09-11T19:23:46.041Z,22.80
2022-09-11T19:26:15.975Z,22.27
2022-09-11T19:28:43.957Z,25.17
2022-09-11T19:31:15.892Z,24.00
2022-09-11T19:33:44.509Z,20.33
2022-09-11T19:36:23.586Z,17.10
2022-09-11T19:38:51.845Z,17.03
2022-09-11T19:41:23.305Z,14.80
2022-09-11T19:43:50.745Z,14.10
2022-09-11T19:46:20.285Z,13.37
2022-09-11T19:48:48.521Z,13.13
2022-09-11T19:51:23.748Z,13.47
2022-09-11T19:53:52.333Z,12.57
2022-09-11T19:56:19.533Z,12.40
2022-09-11T19:58:47.096Z,11.70
2022-09-11T20:01:16.238Z,12.83
2022-09-11T20:03:45.421Z,12.00
2022-09-11T20:06:13.961Z,11.60
2022-09-11T20:08:43.400Z,11.30
2022-09-11T20:11:12.935Z,12.00
2022-09-11T20:13:39.478Z,12.13
2022-09-11T20:16:15.531Z,11.50
2022-09-11T20:18:43.296Z,11.57
2022-09-11T20:21:15.772Z,11.83
2022-09-11T20:23:44.172Z,12.03
2022-09-11T20:26:19.914Z,11.77
2022-09-11T20:28:48.253Z,11.93
2022-09-11T20:31:16.620Z,12.53
2022-09-11T20:33:44.689Z,13.10
2022-09-11T20:36:13.889Z,11.97
2022-09-11T20:38:40.433Z,11.67
2022-09-11T20:41:08.994Z,12.63
2022-09-11T20:43:36.337Z,11.60
2022-09-11T20:46:03.682Z,12.70
2022-09-11T20:48:31.144Z,11.93
2022-09-11T20:51:06.456Z,11.83
2022-09-11T20:53:32.968Z,13.67
2022-09-11T20:56:07.832Z,13.73
2022-09-11T20:58:35.214Z,13.23
2022-09-11T21:01:02.206Z,12.53
2022-09-11T21:03:29.084Z,12.83
2022-09-11T21:05:56.427Z,12.20
2022-09-11T21:08:23.131Z,12.73
2022-09-11T21:10:49.834Z,13.40
2022-09-11T21:13:16.842Z,14.13
2022-09-11T21:15:44.408Z,13.60
2022-09-11T21:18:12.168Z,13.80
2022-09-11T21:20:39.373Z,13.87
2022-09-11T21:23:07.188Z,14.47
2022-09-11T21:25:38.624Z,15.50
2022-09-11T21:28:05.088Z,13.27
2022-09-11T21:30:31.877Z,14.30
2022-09-11T21:32:58.350Z,15.43
2022-09-11T21:35:24.824Z,15.70
2022-09-11T21:37:51.297Z,14.90
2022-09-11T21:40:17.912Z,14.77
2022-09-11T21:42:44.475Z,14.83
2022-09-11T21:45:11.202Z,15.40
2022-09-11T21:47:37.653Z,15.60
2022-09-11T21:50:08.079Z,15.13
2022-09-11T21:52:35.220Z,15.67
2022-09-11T21:55:01.722Z,17.00
2022-09-11T21:57:28.976Z,15.53
2022-09-11T21:59:56.140Z,15.87
2022-09-11T22:02:24.928Z,16.13
2022-09-11T22:04:52.823Z,15.80
2022-09-11T22:07:20.032Z,17.10
2022-09-11T22:09:50.471Z,18.00
2022-09-11T22:12:17.236Z,19.67
2022-09-11T22:14:46.759Z,18.30
2022-09-11T22:17:13.589Z,18.33
2022-09-11T22:19:43.946Z,17.20
2022-09-11T22:22:10.449Z,18.57
2022-09-11T22:24:38.680Z,18.10
2022-09-11T22:27:06.812Z,18.07
2022-09-11T22:29:33.732Z,17.77
2022-09-11T22:32:00.241Z,17.90
2022-09-11T22:34:26.944Z,18.33
2022-09-11T22:36:53.432Z,17.53
2022-09-11T22:39:19.937Z,17.90
2022-09-11T22:41:46.447Z,17.57
2022-09-11T22:44:13.231Z,17.37
2022-09-11T22:46:40.080Z,17.53
2022-09-11T22:49:06.547Z,18.47
2022-09-11T22:51:34.070Z,17.93
2022-09-11T22:54:00.770Z,17.57
2022-09-11T22:56:27.240Z,18.17
2022-09-11T22:58:54.270Z,16.70
2022-09-11T23:01:22.794Z,17.27
2022-09-11T23:03:51.196Z,17.63
2022-09-11T23:06:37.287Z,16.70
2022-09-11T23:09:05.930Z,17.87
2022-09-11T23:11:32.636Z,17.20
2022-09-11T23:13:59.363Z,18.37
2022-09-11T23:16:28.328Z,20.17
2022-09-11T23:18:56.295Z,20.53
2022-09-11T23:21:23.936Z,21.80
2022-09-11T23:23:55.574Z,21.60
2022-09-11T23:26:23.428Z,21.50
2022-09-11T23:28:50.573Z,20.73
2022-09-11T23:31:20.321Z,20.17
2022-09-11T23:33:48.884Z,20.70
2022-09-11T23:36:15.998Z,19.20
2022-09-11T23:38:47.017Z,19.77
2022-09-11T23:41:15.019Z,19.67
2022-09-11T23:43:42.094Z,18.60
2022-09-11T23:46:08.894Z,18.73
2022-09-11T23:48:36.338Z,19.40
2022-09-11T23:51:03.899Z,19.37
2022-09-11T23:53:31.337Z,20.33
2022-09-11T23:55:58.575Z,18.93
2022-09-11T23:58:25.579Z,20.43
